Latest Weather Observations for Willis Island

IDQ60801

Issued at 6:05 pm EST Saturday 25 October 2014 (issued every 30 minutes, with the page automatically refreshed every 10 minutes)

About weather observations | Map of weather stations | Latest weather observations for QLD | Other Formats
Station Details ID: 200283 Name: WILLIS ISLAND Lat: -16.29 Lon: 149.97 Height: 9.29 m
Data from the previous 72 hours. | See also: Recent months at Willis Island
Date/Time
EST
Temp
°C
App
Temp
°C
Dew
Point
Rel
Hum
%
Delta-T
°C
Wind Press
QNH
hPa
Press
MSL
hPa
Rain
since 9 am
mm
Dir
 
Spd
km/h
Gust
km/h
Spd
kts
Gust
kts
25/06:00pm 24.2 20.1 16.5 62 4.7 SE 33 41 18 22 1015.4 - 0.2
25/05:30pm 24.5 20.6 16.9 62 4.7 SE 33 41 18 22 1015.2 - 0.2
25/05:00pm 24.9 20.4 16.4 59 5.2 SE 35 41 19 22 1014.7 - 0.2
25/04:30pm 25.4 21.0 15.7 55 5.9 SE 33 41 18 22 1014.3 - 0.2
25/04:00pm 25.6 20.9 15.9 55 5.9 SE 35 41 19 22 1014.2 - 0.2
25/03:30pm 25.9 21.8 16.5 56 5.8 SE 33 39 18 21 1014.3 - 0.2
25/03:00pm 26.2 21.4 15.7 52 6.4 SE 35 41 19 22 1014.5 1014.5 0.2
25/02:30pm 26.7 22.1 16.1 52 6.5 SE 35 41 19 22 1014.7 - 0.2
25/02:00pm 26.9 22.3 16.2 52 6.6 SE 35 41 19 22 1014.8 - 0.2
25/01:30pm 27.2 23.1 16.5 52 6.6 ESE 33 41 18 22 1015.1 - 0.2
25/01:00pm 27.2 23.3 15.4 48 7.2 ESE 30 35 16 19 1015.4 - 0.2
25/12:30pm 27.4 23.5 16.4 51 6.8 SE 32 37 17 20 1015.8 - 0.2
25/12:00pm 27.2 23.5 16.9 53 6.4 SE 32 37 17 20 1016.2 1016.2 0.2
25/11:30am 26.8 22.2 16.2 52 6.5 ESE 35 41 19 22 1016.5 - 0.2
25/11:00am 26.9 21.9 15.0 48 7.2 ESE 35 41 19 22 1016.8 - 0.2
25/10:30am 26.9 21.7 16.5 53 6.4 ESE 39 48 21 26 1017.1 - 0.2
25/10:00am 26.3 20.4 15.8 52 6.4 ESE 41 46 22 25 1017.3 - 0.2
25/09:30am 26.7 22.2 15.5 50 6.8 ESE 33 39 18 21 1017.6 - 0.2
25/09:00am 26.4 21.9 16.3 53 6.2 ESE 35 41 19 22 1017.8 1017.8 0.0
25/08:30am 25.9 20.6 16.3 55 5.9 ESE 39 46 21 25 1017.6 - 0.0
25/08:00am 25.7 20.1 15.6 53 6.1 ESE 39 46 21 25 1017.6 - 0.0
25/07:30am 25.4 19.5 16.8 59 5.3 ESE 43 50 23 27 1017.4 - 0.0
25/07:00am 24.9 19.3 17.5 63 4.6 ESE 43 50 23 27 1016.9 - 0.0
25/06:46am 24.2 19.2 18.0 68 3.9 ESE 41 46 22 25 1016.8 - 0.0
25/06:30am 23.3 21.3 19.9 81 2.2 E 30 43 16 23 1016.7 - 0.0
25/06:22am 22.9 19.7 19.4 80 2.2 E 35 43 19 23 1016.6 - 0.0
25/06:00am 23.5 19.4 19.1 76 2.8 ESE 39 46 21 25 1016.4 1016.4 0.0
25/05:30am 24.1 21.3 19.4 75 3.0 ESE 33 41 18 22 1016.0 - 0.0
25/05:00am 23.6 21.0 18.7 74 3.1 SE 30 35 16 19 1015.7 - 0.0
25/04:30am 23.0 21.0 19.9 83 2.0 SE 30 35 16 19 1015.7 - 0.0
25/04:04am 23.8 19.7 19.1 75 3.0 ESE 39 57 21 31 1015.4 - 0.0
25/04:00am 24.2 20.1 18.3 69 3.7 SE 37 43 20 23 1015.3 - 0.0
25/03:30am 24.1 20.2 17.9 68 3.9 SE 35 41 19 22 1015.2 - 0.0
25/03:00am 24.1 20.0 17.3 65 4.2 SE 35 41 19 22 1015.1 1015.1 0.0
25/02:30am 24.2 20.0 17.1 64 4.4 SE 35 41 19 22 1015.1 - 0.0
25/02:00am 24.2 21.5 18.5 70 3.6 SE 30 39 16 21 1015.3 - 0.0
25/01:30am 24.3 19.3 17.0 63 4.5 SE 39 46 21 25 1015.7 - 0.0
25/01:00am 24.3 20.2 17.4 65 4.3 ESE 35 44 19 24 1016.0 - 0.0
25/12:30am 24.2 18.4 16.0 60 5.0 SE 41 46 22 25 1016.3 - 0.0
25/12:00am 24.4 18.3 14.2 53 6.0 SE 39 46 21 25 1016.6 1016.6 0.0
 
Date/Time
EST
Temp
°C
App
Temp
°C
Dew
Point
Rel
Hum
%
Delta-T
°C
Wind Press
QNH
hPa
Press
MSL
hPa
Rain
since 9 am
mm
Dir
 
Spd
km/h
Gust
km/h
Spd
kts
Gust
kts
24/11:30pm 24.3 18.4 16.8 63 4.6 SE 43 50 23 27 1017.1 - 0.0
24/11:00pm 24.4 19.1 17.3 64 4.4 SE 41 48 22 26 1017.5 - 0.0
24/10:30pm 24.6 19.4 18.4 68 3.9 SE 43 48 23 26 1017.6 - 0.0
24/10:00pm 24.6 18.9 17.3 64 4.5 SE 43 50 23 27 1017.8 - 0.0
24/09:30pm 24.8 19.6 18.3 67 4.1 SE 43 50 23 27 1017.7 - 0.0
24/09:00pm 24.6 18.7 16.8 62 4.8 ESE 43 50 23 27 1017.6 1017.6 0.0
24/08:30pm 24.5 19.1 18.0 67 4.1 ESE 43 52 23 28 1017.3 - 0.0
24/08:00pm 24.5 20.0 18.3 68 3.9 ESE 39 46 21 25 1016.9 - 0.0
24/07:30pm 24.7 19.6 17.8 65 4.3 SE 41 48 22 26 1016.6 - 0.0
24/07:00pm 24.7 19.9 17.6 64 4.4 SE 39 43 21 23 1016.4 - 0.0
24/06:30pm 24.6 20.0 17.2 63 4.6 ESE 37 44 20 24 1016.1 - 0.0
24/06:00pm 24.7 20.0 16.9 62 4.8 ESE 37 44 20 24 1015.9 1015.9 0.0
24/05:30pm 24.9 20.9 17.7 64 4.5 ESE 35 39 19 21 1015.6 - 0.0
24/05:00pm 25.1 20.8 16.8 60 5.1 SE 35 41 19 22 1015.2 - 0.0
24/04:30pm 25.3 21.5 17.3 61 5.0 SE 33 39 18 21 1015.0 - 0.0
24/04:00pm 25.9 21.8 17.4 59 5.3 ESE 35 41 19 22 1014.7 - 0.0
24/03:30pm 25.9 22.3 17.6 60 5.2 SE 33 39 18 21 1014.6 - 0.0
24/03:00pm 26.9 23.4 17.9 57 5.7 ESE 33 39 18 21 1014.7 1014.7 0.0
24/02:30pm 26.7 23.1 17.6 57 5.7 ESE 33 39 18 21 1014.9 - 0.0
24/02:00pm 27.1 23.5 17.7 56 5.9 ESE 33 41 18 22 1015.0 - 0.0
24/01:30pm 27.4 23.7 17.5 54 6.2 SE 33 39 18 21 1015.3 - 0.0
24/01:00pm 26.5 22.4 17.4 57 5.7 ESE 35 39 19 21 1015.6 - 0.0
24/12:30pm 26.9 23.1 18.1 58 5.6 ESE 35 39 19 21 1015.9 - 0.0
24/12:00pm 26.8 23.2 17.7 57 5.7 ESE 33 39 18 21 1016.2 1016.2 0.0
24/11:30am 26.6 23.6 17.7 58 5.6 ESE 30 37 16 20 1016.7 - 0.0
24/11:00am 27.2 24.1 18.4 58 5.6 ESE 32 37 17 20 1017.1 - 0.0
24/10:30am 26.2 23.6 19.4 66 4.4 SE 32 37 17 20 1017.4 - 0.0
24/10:00am 26.6 23.4 17.3 56 5.8 ESE 30 35 16 19 1017.5 - 0.0
24/09:30am 25.7 22.5 18.1 63 4.8 ESE 32 35 17 19 1017.7 - 0.0
24/09:00am 26.0 22.4 17.2 58 5.5 ESE 32 37 17 20 1017.7 1017.7 2.0
24/08:30am 25.8 21.2 17.1 58 5.4 ESE 37 41 20 22 1017.7 - 2.0
24/08:00am 25.7 22.3 19.0 66 4.3 ESE 35 39 19 21 1017.6 - 2.0
24/07:30am 25.1 21.0 18.3 66 4.3 ESE 37 43 20 23 1017.2 - 2.0
24/07:00am 24.7 20.5 17.1 62 4.7 ESE 35 41 19 22 1017.0 - 2.0
24/06:30am 24.3 20.1 18.1 68 3.9 ESE 37 44 20 24 1016.6 - 2.0
24/06:00am 24.1 20.3 18.0 68 3.8 ESE 35 43 19 23 1016.1 1016.1 2.0
24/05:30am 23.6 20.3 18.3 72 3.3 ESE 33 39 18 21 1015.9 - 2.0
24/05:00am 23.5 20.8 18.4 73 3.2 ESE 30 37 16 20 1015.6 - 2.0
24/04:30am 21.9 18.9 19.9 88 1.3 ESE 35 43 19 23 1015.2 - 2.0
24/04:25am 22.2 20.5 19.7 86 1.6 SE 28 50 15 27 1015.3 - 1.2
24/04:00am 22.8 20.8 19.2 80 2.3 SE 28 35 15 19 1015.3 - 0.6
24/03:46am 22.2 20.4 19.5 85 1.7 SSE 28 37 15 20 1015.2 - 0.6
24/03:30am 21.9 16.4 18.9 83 1.9 ESE 46 52 25 28 1015.2 - 0.4
24/03:25am 23.6 21.6 19.2 76 2.8 SE 28 46 15 25 1015.2 - 0.0
24/03:00am 23.8 21.5 18.4 72 3.4 SE 28 33 15 18 1015.2 1015.2 0.0
24/02:30am 23.8 21.7 18.9 74 3.1 SE 28 33 15 18 1015.2 - 0.0
24/02:00am 23.8 20.4 19.1 75 3.0 SSE 35 43 19 23 1015.4 - 0.0
24/01:30am 24.0 20.4 18.6 72 3.4 SSE 35 43 19 23 1015.7 - 0.0
24/01:00am 24.0 20.0 18.4 71 3.5 SE 37 41 20 22 1016.2 - 0.0
24/12:30am 23.8 20.6 18.6 72 3.3 ESE 33 39 18 21 1016.4 - 0.0
24/12:00am 23.5 19.5 18.4 73 3.2 SE 37 50 20 27 1016.9 1016.9 0.0
 
Date/Time
EST
Temp
°C
App
Temp
°C
Dew
Point
Rel
Hum
%
Delta-T
°C
Wind Press
QNH
hPa
Press
MSL
hPa
Rain
since 9 am
mm
Dir
 
Spd
km/h
Gust
km/h
Spd
kts
Gust
kts
23/11:30pm 24.2 20.1 17.4 65 4.2 SE 35 41 19 22 1017.0 - 0.0
23/11:00pm 24.2 20.3 17.8 67 4.0 SE 35 39 19 21 1017.3 - 0.0
23/10:30pm 24.3 19.6 16.8 63 4.6 ESE 37 43 20 23 1017.4 - 0.0
23/10:00pm 24.5 19.4 16.9 62 4.7 ESE 39 44 21 24 1017.7 - 0.0
23/09:30pm 24.3 19.7 17.0 63 4.5 ESE 37 43 20 23 1017.6 - 0.0
23/09:00pm 24.3 19.2 16.8 63 4.6 ESE 39 46 21 25 1017.3 1017.3 0.0
23/08:30pm 24.4 19.7 17.8 66 4.1 ESE 39 46 21 25 1017.0 - 0.0
23/08:00pm 24.3 19.7 17.9 67 4.0 SE 39 46 21 25 1016.5 - 0.0
23/07:30pm 24.4 20.2 18.0 67 4.0 SE 37 44 20 24 1016.3 - 0.0
23/07:00pm 24.3 19.9 17.6 66 4.2 SE 37 44 20 24 1016.1 - 0.0
23/06:30pm 24.3 19.5 16.6 62 4.7 SE 37 44 20 24 1015.9 - 0.0
23/06:00pm 24.3 19.3 17.0 63 4.5 SE 39 44 21 24 1015.6 1015.6 0.0
23/05:30pm 24.8 20.2 17.9 65 4.3 SE 39 44 21 24 1015.2 - 0.0
23/05:00pm 24.7 19.8 17.3 63 4.6 SE 39 44 21 24 1014.9 - 0.0
23/04:30pm 25.4 21.1 17.9 63 4.7 SE 37 44 20 24 1014.4 - 0.0
23/04:00pm 25.5 21.4 18.2 64 4.6 SE 37 43 20 23 1014.1 - 0.0
23/03:30pm 25.9 21.6 17.8 61 5.1 SE 37 43 20 23 1014.0 - 0.0
23/03:00pm 26.4 22.4 18.5 62 5.0 SE 37 43 20 23 1014.1 1014.1 0.0
23/02:30pm 26.7 23.0 18.4 60 5.3 SE 35 41 19 22 1014.2 - 0.0
23/02:00pm 26.4 22.6 18.2 60 5.2 SE 35 43 19 23 1014.3 - 0.0
23/01:30pm 26.5 23.0 18.7 62 5.0 SE 35 43 19 23 1014.6 - 0.0
23/01:00pm 26.4 22.1 17.8 59 5.4 SSE 37 41 20 22 1015.0 - 0.0
23/12:30pm 27.1 23.1 18.5 59 5.5 SSE 37 43 20 23 1015.2 - 0.0
23/12:00pm 26.7 22.3 17.6 57 5.7 SE 37 44 20 24 1015.6 1015.6 0.0
23/11:30am 26.6 22.8 18.2 60 5.3 SE 35 41 19 22 1016.0 - 0.0
23/11:00am 26.6 23.4 18.6 61 5.1 SE 33 39 18 21 1016.2 - 0.0
23/10:30am 26.5 23.0 17.9 59 5.4 SE 33 39 18 21 1016.3 - 0.0
23/10:00am 26.4 22.6 18.2 60 5.2 SE 35 43 19 23 1016.6 - 0.0
23/09:30am 26.3 22.8 18.8 63 4.8 SSE 35 41 19 22 1016.8 - 0.0
23/09:00am 25.7 22.5 18.6 65 4.5 SE 33 41 18 22 1016.8 1016.8 0.0
23/08:30am 25.7 22.1 17.7 61 5.0 SE 33 39 18 21 1016.7 - 0.0
23/08:00am 25.4 21.1 16.8 59 5.3 SE 35 41 19 22 1016.5 - 0.0
23/07:30am 25.1 20.3 16.6 59 5.2 SE 37 41 20 22 1016.3 - 0.0
23/07:00am 24.7 19.6 16.9 62 4.8 SE 39 43 21 23 1016.0 - 0.0
23/06:30am 24.5 19.7 17.6 65 4.3 SE 39 44 21 24 1015.9 - 0.0
23/06:00am 23.9 18.2 17.1 65 4.2 ESE 43 46 23 25 1015.5 1015.5 0.0
23/05:30am 22.9 19.5 19.0 78 2.5 SE 35 48 19 26 1015.5 - 0.0
23/05:00am 23.4 19.8 19.3 78 2.6 SE 37 44 20 24 1015.3 - 0.0
23/04:30am 23.7 19.1 18.1 71 3.5 SE 39 46 21 25 1015.0 - 0.0
23/04:00am 23.8 19.7 18.2 71 3.5 SE 37 43 20 23 1014.6 - 0.0
23/03:30am 23.2 20.4 19.1 78 2.6 ESE 32 37 17 20 1014.6 - 0.0
23/03:00am 23.7 19.4 18.6 73 3.2 SE 39 46 21 25 1014.6 1014.6 0.0
23/02:30am 23.9 19.6 18.7 72 3.3 SE 39 46 21 25 1014.8 - 0.0
23/02:00am 24.0 20.4 18.6 72 3.4 SE 35 46 19 25 1015.1 - 0.0
23/01:47am 23.4 20.9 18.8 75 2.9 ESE 30 41 16 22 1015.2 - 0.0
23/01:30am 23.6 19.5 18.2 71 3.4 SSE 37 43 20 23 1015.4 - 0.0
23/01:00am 23.7 19.4 17.9 70 3.6 SE 37 46 20 25 1015.9 - 0.0
23/12:30am 23.8 19.8 18.6 72 3.3 SE 37 46 20 25 1016.4 - 0.0
23/12:00am 23.9 19.9 17.6 68 3.9 SE 35 43 19 23 1016.9 1016.9 0.0
 
Date/Time
EST
Temp
°C
App
Temp
°C
Dew
Point
Rel
Hum
%
Delta-T
°C
Wind Press
QNH
hPa
Press
MSL
hPa
Rain
since 9 am
mm
Dir
 
Spd
km/h
Gust
km/h
Spd
kts
Gust
kts
22/11:30pm 23.9 19.5 18.5 72 3.4 SE 39 43 21 23 1017.3 - 0.0
22/11:00pm 24.0 20.0 17.7 68 3.9 SE 35 39 19 21 1017.6 - 0.0
22/10:30pm 24.2 20.3 17.8 67 4.0 SE 35 41 19 22 1017.9 - 0.0
22/10:00pm 24.3 20.3 17.7 66 4.1 SE 35 43 19 23 1018.1 - 0.0
22/09:30pm 24.4 20.0 17.5 65 4.3 ESE 37 43 20 23 1018.1 - 0.0
22/09:00pm 24.2 19.5 16.9 63 4.5 SE 37 43 20 23 1017.7 1017.7 0.0
22/08:30pm 24.4 19.6 16.6 61 4.8 SE 37 46 20 25 1017.7 - 0.0
22/08:00pm 24.3 18.9 15.9 59 5.1 SE 39 46 21 25 1017.4 - 0.0
22/07:30pm 24.3 18.7 17.4 65 4.3 SE 43 54 23 29 1016.9 - 0.0
22/07:00pm 24.4 18.6 17.5 65 4.3 SE 44 56 24 30 1016.5 - 0.0
22/06:30pm 24.3 18.4 16.6 62 4.7 SE 43 52 23 28 1016.2 - 0.0

Other Formats:

Comma delimited format used in spreadsheet applications
http://www.bom.gov.au/fwo/IDQ60801/IDQ60801.94299.axf

JavaScript Object Notation format (JSON) in row-major order
http://www.bom.gov.au/fwo/IDQ60801/IDQ60801.94299.json